Terminal Aerodrome Forecast
Issued by NWS Sioux Falls, SD

Home | Current Version | Previous Version | Graphics & Text | Print | Product List | Glossary Off
Versions: 1 2 3 4 5 6 7 8 9 10 11 12 13 14 15 16 17 18 19

000
FTUS43 KFSD 220200 AAA
TAFSUX
TAF AMD
KSUX 220232Z 2203/2224 34014G22KT P6SM SKC
     FM220330 35010KT P6SM SKC
     FM220700 VRB03KT P6SM SKC
     FM221900 13010KT P6SM SCT150=

USA.gov is the U.S. government's official web portal to all federal, state and local government web resources and services.